sensor_id;sensor_type;location;lat;lon;timestamp;P1;durP1;ratioP1;P2;durP2;ratioP2
4786;SDS011;62338;48.832;9.422;2023-04-24T00:00:17;2.53;;;1.60;;
4786;SDS011;62338;48.832;9.422;2023-04-24T00:02:19;2.77;;;1.40;;
4786;SDS011;62338;48.832;9.422;2023-04-24T00:04:21;5.77;;;1.70;;
4786;SDS011;62338;48.832;9.422;2023-04-24T00:06:23;2.13;;;1.33;;
4786;SDS011;62338;48.832;9.422;2023-04-24T00:08:25;2.47;;;1.30;;
4786;SDS011;62338;48.832;9.422;2023-04-24T00:10:27;2.20;;;1.20;;
4786;SDS011;62338;48.832;9.422;2023-04-24T00:12:29;3.10;;;1.50;;
4786;SDS011;62338;48.832;9.422;2023-04-24T00:14:31;2.20;;;1.30;;
4786;SDS011;62338;48.832;9.422;2023-04-24T00:16:32;2.30;;;1.30;;
4786;SDS011;62338;48.832;9.422;2023-04-24T00:18:34;2.30;;;1.27;;
4786;SDS011;62338;48.832;9.422;2023-04-24T00:20:36;2.53;;;1.10;;
4786;SDS011;62338;48.832;9.422;2023-04-24T00:22:37;4.10;;;1.70;;
4786;SDS011;62338;48.832;9.422;2023-04-24T00:24:39;2.37;;;1.20;;
4786;SDS011;62338;48.832;9.422;2023-04-24T00:26:41;3.00;;;1.23;;
4786;SDS011;62338;48.832;9.422;2023-04-24T00:28:43;2.53;;;1.10;;
4786;SDS011;62338;48.832;9.422;2023-04-24T00:30:45;4.93;;;1.30;;
4786;SDS011;62338;48.832;9.422;2023-04-24T00:32:46;2.93;;;1.43;;
4786;SDS011;62338;48.832;9.422;2023-04-24T00:34:48;3.17;;;1.20;;
4786;SDS011;62338;48.832;9.422;2023-04-24T00:36:50;4.47;;;1.47;;
4786;SDS011;62338;48.832;9.422;2023-04-24T00:38:53;3.33;;;1.40;;
4786;SDS011;62338;48.832;9.422;2023-04-24T00:40:55;4.47;;;1.60;;
4786;SDS011;62338;48.832;9.422;2023-04-24T00:42:57;4.73;;;1.40;;
4786;SDS011;62338;48.832;9.422;2023-04-24T00:44:59;3.80;;;1.40;;
4786;SDS011;62338;48.832;9.422;2023-04-24T00:47:02;4.30;;;1.20;;
4786;SDS011;62338;48.832;9.422;2023-04-24T00:49:04;2.30;;;1.33;;
4786;SDS011;62338;48.832;9.422;2023-04-24T00:51:07;2.80;;;1.50;;
4786;SDS011;62338;48.832;9.422;2023-04-24T00:53:08;4.70;;;1.30;;
4786;SDS011;62338;48.832;9.422;2023-04-24T00:55:11;2.33;;;1.17;;
4786;SDS011;62338;48.832;9.422;2023-04-24T00:57:12;2.33;;;1.20;;
4786;SDS011;62338;48.832;9.422;2023-04-24T00:59:16;3.93;;;1.13;;
4786;SDS011;62338;48.832;9.422;2023-04-24T01:01:19;4.73;;;1.73;;
4786;SDS011;62338;48.832;9.422;2023-04-24T01:03:22;3.50;;;1.40;;
4786;SDS011;62338;48.832;9.422;2023-04-24T01:05:27;2.50;;;1.33;;
4786;SDS011;62338;48.832;9.422;2023-04-24T01:07:29;2.60;;;1.33;;
4786;SDS011;62338;48.832;9.422;2023-04-24T01:09:31;5.40;;;1.50;;
4786;SDS011;62338;48.832;9.422;2023-04-24T01:11:33;2.90;;;1.10;;
4786;SDS011;62338;48.832;9.422;2023-04-24T01:13:35;4.30;;;1.27;;
4786;SDS011;62338;48.832;9.422;2023-04-24T01:15:36;4.10;;;1.40;;
4786;SDS011;62338;48.832;9.422;2023-04-24T01:17:38;3.00;;;1.30;;
4786;SDS011;62338;48.832;9.422;2023-04-24T01:19:40;2.90;;;1.20;;
4786;SDS011;62338;48.832;9.422;2023-04-24T01:21:42;3.83;;;1.50;;
4786;SDS011;62338;48.832;9.422;2023-04-24T01:23:45;2.10;;;1.20;;
4786;SDS011;62338;48.832;9.422;2023-04-24T01:25:47;4.37;;;1.20;;
4786;SDS011;62338;48.832;9.422;2023-04-24T01:27:50;2.23;;;1.27;;
4786;SDS011;62338;48.832;9.422;2023-04-24T01:29:52;2.13;;;1.00;;
4786;SDS011;62338;48.832;9.422;2023-04-24T01:31:54;2.50;;;1.20;;
4786;SDS011;62338;48.832;9.422;2023-04-24T01:33:56;3.00;;;1.30;;
4786;SDS011;62338;48.832;9.422;2023-04-24T01:35:58;3.70;;;1.20;;
4786;SDS011;62338;48.832;9.422;2023-04-24T01:38:00;2.53;;;1.30;;
4786;SDS011;62338;48.832;9.422;2023-04-24T01:40:04;4.03;;;1.10;;
4786;SDS011;62338;48.832;9.422;2023-04-24T01:42:07;2.40;;;1.17;;
4786;SDS011;62338;48.832;9.422;2023-04-24T01:44:09;3.03;;;1.57;;
4786;SDS011;62338;48.832;9.422;2023-04-24T01:46:11;2.00;;;1.10;;
4786;SDS011;62338;48.832;9.422;2023-04-24T01:48:13;2.67;;;1.10;;
4786;SDS011;62338;48.832;9.422;2023-04-24T01:50:15;2.90;;;1.30;;
4786;SDS011;62338;48.832;9.422;2023-04-24T01:52:17;3.00;;;0.90;;
4786;SDS011;62338;48.832;9.422;2023-04-24T01:54:19;2.87;;;1.30;;
4786;SDS011;62338;48.832;9.422;2023-04-24T01:56:21;4.37;;;1.47;;
4786;SDS011;62338;48.832;9.422;2023-04-24T01:58:23;3.87;;;1.57;;
4786;SDS011;62338;48.832;9.422;2023-04-24T02:00:25;6.23;;;1.50;;
4786;SDS011;62338;48.832;9.422;2023-04-24T02:02:27;3.23;;;1.13;;
4786;SDS011;62338;48.832;9.422;2023-04-24T02:04:30;4.00;;;1.30;;
4786;SDS011;62338;48.832;9.422;2023-04-24T02:06:31;4.77;;;1.30;;
4786;SDS011;62338;48.832;9.422;2023-04-24T02:08:33;2.90;;;1.33;;
4786;SDS011;62338;48.832;9.422;2023-04-24T02:10:35;2.93;;;1.30;;
4786;SDS011;62338;48.832;9.422;2023-04-24T02:12:36;4.50;;;1.40;;
4786;SDS011;62338;48.832;9.422;2023-04-24T02:14:38;3.40;;;1.37;;
4786;SDS011;62338;48.832;9.422;2023-04-24T02:16:40;2.50;;;1.17;;
4786;SDS011;62338;48.832;9.422;2023-04-24T02:18:42;7.30;;;1.40;;
4786;SDS011;62338;48.832;9.422;2023-04-24T02:20:44;2.10;;;1.10;;
4786;SDS011;62338;48.832;9.422;2023-04-24T02:22:46;2.70;;;1.10;;
4786;SDS011;62338;48.832;9.422;2023-04-24T02:24:48;2.80;;;1.00;;
4786;SDS011;62338;48.832;9.422;2023-04-24T02:26:49;4.50;;;1.20;;
4786;SDS011;62338;48.832;9.422;2023-04-24T02:28:51;2.67;;;1.27;;
4786;SDS011;62338;48.832;9.422;2023-04-24T02:30:53;2.80;;;1.03;;
4786;SDS011;62338;48.832;9.422;2023-04-24T02:32:54;2.33;;;1.23;;
4786;SDS011;62338;48.832;9.422;2023-04-24T02:34:56;5.00;;;1.03;;
4786;SDS011;62338;48.832;9.422;2023-04-24T02:36:58;6.43;;;1.27;;
4786;SDS011;62338;48.832;9.422;2023-04-24T02:38:59;3.67;;;1.50;;
4786;SDS011;62338;48.832;9.422;2023-04-24T02:41:02;2.60;;;1.20;;
4786;SDS011;62338;48.832;9.422;2023-04-24T02:43:07;2.30;;;1.20;;
4786;SDS011;62338;48.832;9.422;2023-04-24T02:45:08;2.53;;;1.20;;
4786;SDS011;62338;48.832;9.422;2023-04-24T02:47:10;2.77;;;1.10;;
4786;SDS011;62338;48.832;9.422;2023-04-24T02:49:12;4.60;;;1.20;;
4786;SDS011;62338;48.832;9.422;2023-04-24T02:51:14;4.17;;;1.27;;
4786;SDS011;62338;48.832;9.422;2023-04-24T02:53:16;2.70;;;1.13;;
4786;SDS011;62338;48.832;9.422;2023-04-24T02:55:17;5.60;;;1.37;;
4786;SDS011;62338;48.832;9.422;2023-04-24T02:57:19;2.73;;;1.43;;
4786;SDS011;62338;48.832;9.422;2023-04-24T02:59:21;3.10;;;1.20;;
4786;SDS011;62338;48.832;9.422;2023-04-24T03:01:23;2.40;;;1.10;;
4786;SDS011;62338;48.832;9.422;2023-04-24T03:03:26;2.50;;;1.20;;
4786;SDS011;62338;48.832;9.422;2023-04-24T03:05:28;2.37;;;1.50;;
4786;SDS011;62338;48.832;9.422;2023-04-24T03:07:29;3.43;;;1.33;;
4786;SDS011;62338;48.832;9.422;2023-04-24T03:09:32;6.40;;;1.20;;
4786;SDS011;62338;48.832;9.422;2023-04-24T03:11:34;3.00;;;1.00;;
4786;SDS011;62338;48.832;9.422;2023-04-24T03:13:36;3.20;;;1.40;;
4786;SDS011;62338;48.832;9.422;2023-04-24T03:15:37;5.80;;;1.50;;
4786;SDS011;62338;48.832;9.422;2023-04-24T03:17:39;6.93;;;1.33;;
4786;SDS011;62338;48.832;9.422;2023-04-24T03:19:41;3.87;;;1.47;;
4786;SDS011;62338;48.832;9.422;2023-04-24T03:21:43;2.10;;;1.20;;
4786;SDS011;62338;48.832;9.422;2023-04-24T03:23:46;6.20;;;1.43;;
4786;SDS011;62338;48.832;9.422;2023-04-24T03:25:47;2.67;;;1.37;;
4786;SDS011;62338;48.832;9.422;2023-04-24T03:27:49;3.57;;;1.20;;
4786;SDS011;62338;48.832;9.422;2023-04-24T03:29:51;6.83;;;1.73;;
4786;SDS011;62338;48.832;9.422;2023-04-24T03:31:56;3.60;;;1.40;;
4786;SDS011;62338;48.832;9.422;2023-04-24T03:33:57;3.37;;;1.20;;
4786;SDS011;62338;48.832;9.422;2023-04-24T03:35:59;3.33;;;1.30;;
4786;SDS011;62338;48.832;9.422;2023-04-24T03:38:01;2.50;;;1.50;;
4786;SDS011;62338;48.832;9.422;2023-04-24T03:40:03;3.67;;;1.50;;
4786;SDS011;62338;48.832;9.422;2023-04-24T03:42:05;2.00;;;1.10;;
4786;SDS011;62338;48.832;9.422;2023-04-24T03:44:07;3.17;;;1.30;;
4786;SDS011;62338;48.832;9.422;2023-04-24T03:46:08;3.10;;;1.20;;
4786;SDS011;62338;48.832;9.422;2023-04-24T03:48:10;4.17;;;1.40;;
4786;SDS011;62338;48.832;9.422;2023-04-24T03:50:12;4.70;;;1.80;;
4786;SDS011;62338;48.832;9.422;2023-04-24T03:52:14;3.60;;;1.53;;
4786;SDS011;62338;48.832;9.422;2023-04-24T03:54:16;3.17;;;1.40;;
4786;SDS011;62338;48.832;9.422;2023-04-24T03:56:17;3.40;;;1.37;;
4786;SDS011;62338;48.832;9.422;2023-04-24T03:58:19;2.10;;;1.30;;
4786;SDS011;62338;48.832;9.422;2023-04-24T04:00:21;3.60;;;1.10;;
4786;SDS011;62338;48.832;9.422;2023-04-24T04:02:22;5.20;;;1.40;;
4786;SDS011;62338;48.832;9.422;2023-04-24T04:04:24;3.37;;;1.20;;
4786;SDS011;62338;48.832;9.422;2023-04-24T04:06:27;2.03;;;1.20;;
4786;SDS011;62338;48.832;9.422;2023-04-24T04:08:29;6.20;;;1.30;;
4786;SDS011;62338;48.832;9.422;2023-04-24T04:10:31;2.70;;;1.50;;
4786;SDS011;62338;48.832;9.422;2023-04-24T04:12:33;2.20;;;1.13;;
4786;SDS011;62338;48.832;9.422;2023-04-24T04:14:34;2.53;;;1.10;;
4786;SDS011;62338;48.832;9.422;2023-04-24T04:16:36;2.73;;;1.67;;
4786;SDS011;62338;48.832;9.422;2023-04-24T04:18:38;4.50;;;1.47;;
4786;SDS011;62338;48.832;9.422;2023-04-24T04:20:39;3.70;;;1.33;;
4786;SDS011;62338;48.832;9.422;2023-04-24T04:22:41;2.17;;;1.20;;
4786;SDS011;62338;48.832;9.422;2023-04-24T04:24:44;3.30;;;1.37;;
4786;SDS011;62338;48.832;9.422;2023-04-24T04:26:47;4.27;;;1.10;;
4786;SDS011;62338;48.832;9.422;2023-04-24T04:28:52;3.27;;;1.47;;
4786;SDS011;62338;48.832;9.422;2023-04-24T04:30:54;2.50;;;1.30;;
4786;SDS011;62338;48.832;9.422;2023-04-24T04:32:56;4.13;;;1.20;;
4786;SDS011;62338;48.832;9.422;2023-04-24T04:34:58;2.00;;;1.10;;
4786;SDS011;62338;48.832;9.422;2023-04-24T04:37:04;4.00;;;1.50;;
4786;SDS011;62338;48.832;9.422;2023-04-24T04:39:06;2.27;;;1.27;;
4786;SDS011;62338;48.832;9.422;2023-04-24T04:41:08;3.90;;;1.40;;
4786;SDS011;62338;48.832;9.422;2023-04-24T04:43:10;3.10;;;1.30;;
4786;SDS011;62338;48.832;9.422;2023-04-24T04:45:14;2.70;;;1.17;;
4786;SDS011;62338;48.832;9.422;2023-04-24T04:47:18;2.87;;;1.57;;
4786;SDS011;62338;48.832;9.422;2023-04-24T04:49:23;3.50;;;1.20;;
4786;SDS011;62338;48.832;9.422;2023-04-24T04:51:25;2.13;;;1.33;;
4786;SDS011;62338;48.832;9.422;2023-04-24T04:53:27;3.43;;;1.50;;
4786;SDS011;62338;48.832;9.422;2023-04-24T04:55:29;3.53;;;1.60;;
4786;SDS011;62338;48.832;9.422;2023-04-24T04:57:31;3.07;;;1.90;;
4786;SDS011;62338;48.832;9.422;2023-04-24T04:59:32;3.60;;;1.83;;
4786;SDS011;62338;48.832;9.422;2023-04-24T05:01:34;4.13;;;1.53;;
4786;SDS011;62338;48.832;9.422;2023-04-24T05:03:36;5.77;;;1.90;;
4786;SDS011;62338;48.832;9.422;2023-04-24T05:05:38;3.73;;;2.00;;
4786;SDS011;62338;48.832;9.422;2023-04-24T05:07:41;3.37;;;2.00;;
4786;SDS011;62338;48.832;9.422;2023-04-24T05:09:43;7.90;;;1.87;;
4786;SDS011;62338;48.832;9.422;2023-04-24T05:11:46;4.33;;;1.87;;
4786;SDS011;62338;48.832;9.422;2023-04-24T05:13:47;2.67;;;1.77;;
4786;SDS011;62338;48.832;9.422;2023-04-24T05:15:49;2.93;;;1.83;;
4786;SDS011;62338;48.832;9.422;2023-04-24T05:17:51;3.33;;;2.23;;
4786;SDS011;62338;48.832;9.422;2023-04-24T05:19:53;3.20;;;1.77;;
4786;SDS011;62338;48.832;9.422;2023-04-24T05:21:55;7.00;;;2.07;;
4786;SDS011;62338;48.832;9.422;2023-04-24T05:23:56;6.30;;;1.93;;
4786;SDS011;62338;48.832;9.422;2023-04-24T05:25:58;2.90;;;1.80;;
4786;SDS011;62338;48.832;9.422;2023-04-24T05:28:00;2.90;;;1.70;;
4786;SDS011;62338;48.832;9.422;2023-04-24T05:30:02;5.40;;;1.93;;
4786;SDS011;62338;48.832;9.422;2023-04-24T05:32:04;7.87;;;2.10;;
4786;SDS011;62338;48.832;9.422;2023-04-24T05:34:06;5.10;;;1.83;;
4786;SDS011;62338;48.832;9.422;2023-04-24T05:36:07;2.93;;;1.60;;
4786;SDS011;62338;48.832;9.422;2023-04-24T05:38:09;3.03;;;1.80;;
4786;SDS011;62338;48.832;9.422;2023-04-24T05:40:11;2.77;;;1.70;;
4786;SDS011;62338;48.832;9.422;2023-04-24T05:42:13;3.80;;;1.90;;
4786;SDS011;62338;48.832;9.422;2023-04-24T05:44:14;4.20;;;2.00;;
4786;SDS011;62338;48.832;9.422;2023-04-24T05:46:16;2.97;;;1.77;;
4786;SDS011;62338;48.832;9.422;2023-04-24T05:48:18;3.30;;;2.10;;
4786;SDS011;62338;48.832;9.422;2023-04-24T05:50:20;4.43;;;1.93;;
4786;SDS011;62338;48.832;9.422;2023-04-24T05:52:22;5.00;;;2.13;;
4786;SDS011;62338;48.832;9.422;2023-04-24T05:54:23;4.97;;;2.20;;
4786;SDS011;62338;48.832;9.422;2023-04-24T05:56:25;4.53;;;2.63;;
4786;SDS011;62338;48.832;9.422;2023-04-24T05:58:27;4.73;;;2.40;;
4786;SDS011;62338;48.832;9.422;2023-04-24T06:00:28;3.87;;;2.10;;
4786;SDS011;62338;48.832;9.422;2023-04-24T06:02:30;3.60;;;2.20;;
4786;SDS011;62338;48.832;9.422;2023-04-24T06:04:34;3.93;;;2.20;;
4786;SDS011;62338;48.832;9.422;2023-04-24T06:06:36;4.50;;;2.13;;
4786;SDS011;62338;48.832;9.422;2023-04-24T06:08:37;2.83;;;2.00;;
4786;SDS011;62338;48.832;9.422;2023-04-24T06:10:39;4.30;;;1.87;;
4786;SDS011;62338;48.832;9.422;2023-04-24T06:12:41;3.17;;;1.90;;
4786;SDS011;62338;48.832;9.422;2023-04-24T06:14:43;4.60;;;2.23;;
4786;SDS011;62338;48.832;9.422;2023-04-24T06:16:44;3.17;;;2.20;;
4786;SDS011;62338;48.832;9.422;2023-04-24T06:18:50;3.23;;;1.83;;
4786;SDS011;62338;48.832;9.422;2023-04-24T06:20:52;4.80;;;1.90;;
4786;SDS011;62338;48.832;9.422;2023-04-24T06:22:53;5.47;;;2.07;;
4786;SDS011;62338;48.832;9.422;2023-04-24T06:24:55;4.07;;;1.60;;
4786;SDS011;62338;48.832;9.422;2023-04-24T06:26:57;3.60;;;2.23;;
4786;SDS011;62338;48.832;9.422;2023-04-24T06:29:01;2.63;;;1.60;;
4786;SDS011;62338;48.832;9.422;2023-04-24T06:31:02;5.77;;;2.07;;
4786;SDS011;62338;48.832;9.422;2023-04-24T06:33:04;5.20;;;2.07;;
4786;SDS011;62338;48.832;9.422;2023-04-24T06:35:19;3.10;;;2.10;;
4786;SDS011;62338;48.832;9.422;2023-04-24T06:37:21;3.77;;;2.27;;
4786;SDS011;62338;48.832;9.422;2023-04-24T06:39:23;4.63;;;2.40;;
4786;SDS011;62338;48.832;9.422;2023-04-24T06:41:25;3.70;;;1.97;;
4786;SDS011;62338;48.832;9.422;2023-04-24T06:43:27;3.97;;;1.93;;
4786;SDS011;62338;48.832;9.422;2023-04-24T06:45:30;2.90;;;1.90;;
4786;SDS011;62338;48.832;9.422;2023-04-24T06:47:31;4.63;;;2.00;;
4786;SDS011;62338;48.832;9.422;2023-04-24T06:49:34;2.80;;;1.63;;
4786;SDS011;62338;48.832;9.422;2023-04-24T06:51:36;2.93;;;1.60;;
4786;SDS011;62338;48.832;9.422;2023-04-24T06:53:38;3.40;;;1.60;;
4786;SDS011;62338;48.832;9.422;2023-04-24T06:55:40;3.50;;;1.50;;
4786;SDS011;62338;48.832;9.422;2023-04-24T06:57:41;3.33;;;1.30;;
4786;SDS011;62338;48.832;9.422;2023-04-24T06:59:43;6.00;;;1.80;;
4786;SDS011;62338;48.832;9.422;2023-04-24T07:01:45;3.00;;;1.53;;
4786;SDS011;62338;48.832;9.422;2023-04-24T07:03:47;3.20;;;1.50;;
4786;SDS011;62338;48.832;9.422;2023-04-24T07:05:49;6.43;;;1.67;;
4786;SDS011;62338;48.832;9.422;2023-04-24T07:07:52;2.90;;;1.47;;
4786;SDS011;62338;48.832;9.422;2023-04-24T07:09:54;5.60;;;1.60;;
4786;SDS011;62338;48.832;9.422;2023-04-24T07:11:57;5.57;;;1.77;;
4786;SDS011;62338;48.832;9.422;2023-04-24T07:13:59;3.47;;;1.60;;
4786;SDS011;62338;48.832;9.422;2023-04-24T07:16:00;4.10;;;1.83;;
4786;SDS011;62338;48.832;9.422;2023-04-24T07:18:02;4.47;;;2.00;;
4786;SDS011;62338;48.832;9.422;2023-04-24T07:20:06;3.97;;;1.93;;
4786;SDS011;62338;48.832;9.422;2023-04-24T07:22:10;4.73;;;2.17;;
4786;SDS011;62338;48.832;9.422;2023-04-24T07:24:17;3.37;;;1.70;;
4786;SDS011;62338;48.832;9.422;2023-04-24T07:26:22;4.33;;;1.60;;
4786;SDS011;62338;48.832;9.422;2023-04-24T07:28:24;3.57;;;1.53;;
4786;SDS011;62338;48.832;9.422;2023-04-24T07:30:26;3.53;;;1.90;;
4786;SDS011;62338;48.832;9.422;2023-04-24T07:32:30;3.77;;;1.90;;
4786;SDS011;62338;48.832;9.422;2023-04-24T07:34:31;5.63;;;2.13;;
4786;SDS011;62338;48.832;9.422;2023-04-24T07:36:33;4.37;;;1.93;;
4786;SDS011;62338;48.832;9.422;2023-04-24T07:38:35;4.20;;;1.97;;
4786;SDS011;62338;48.832;9.422;2023-04-24T07:40:37;3.90;;;1.90;;
4786;SDS011;62338;48.832;9.422;2023-04-24T07:42:39;4.73;;;2.20;;
4786;SDS011;62338;48.832;9.422;2023-04-24T07:44:40;3.43;;;1.77;;
4786;SDS011;62338;48.832;9.422;2023-04-24T07:46:42;7.73;;;2.40;;
4786;SDS011;62338;48.832;9.422;2023-04-24T07:48:44;4.50;;;2.10;;
4786;SDS011;62338;48.832;9.422;2023-04-24T07:50:48;5.33;;;2.20;;
4786;SDS011;62338;48.832;9.422;2023-04-24T07:52:49;5.90;;;2.03;;
4786;SDS011;62338;48.832;9.422;2023-04-24T07:54:51;5.23;;;2.00;;
4786;SDS011;62338;48.832;9.422;2023-04-24T07:56:59;4.57;;;2.10;;
4786;SDS011;62338;48.832;9.422;2023-04-24T07:59:02;3.70;;;1.77;;
4786;SDS011;62338;48.832;9.422;2023-04-24T08:01:03;3.13;;;1.90;;
4786;SDS011;62338;48.832;9.422;2023-04-24T08:03:05;4.33;;;1.70;;
4786;SDS011;62338;48.832;9.422;2023-04-24T08:05:07;3.90;;;1.60;;
4786;SDS011;62338;48.832;9.422;2023-04-24T08:07:10;3.60;;;1.87;;
4786;SDS011;62338;48.832;9.422;2023-04-24T08:09:14;2.80;;;1.20;;
4786;SDS011;62338;48.832;9.422;2023-04-24T08:11:16;3.67;;;1.60;;
4786;SDS011;62338;48.832;9.422;2023-04-24T08:13:17;3.43;;;1.50;;
4786;SDS011;62338;48.832;9.422;2023-04-24T08:15:19;4.13;;;1.50;;
4786;SDS011;62338;48.832;9.422;2023-04-24T08:17:21;5.33;;;1.47;;
4786;SDS011;62338;48.832;9.422;2023-04-24T08:19:23;2.70;;;1.20;;
4786;SDS011;62338;48.832;9.422;2023-04-24T08:21:24;2.30;;;1.20;;
4786;SDS011;62338;48.832;9.422;2023-04-24T08:23:28;3.63;;;1.80;;
4786;SDS011;62338;48.832;9.422;2023-04-24T08:25:31;3.40;;;1.30;;
4786;SDS011;62338;48.832;9.422;2023-04-24T08:27:33;5.07;;;1.50;;
4786;SDS011;62338;48.832;9.422;2023-04-24T08:29:35;2.50;;;1.40;;
4786;SDS011;62338;48.832;9.422;2023-04-24T08:31:37;3.07;;;1.17;;
4786;SDS011;62338;48.832;9.422;2023-04-24T08:33:38;3.33;;;1.30;;
4786;SDS011;62338;48.832;9.422;2023-04-24T08:35:42;2.70;;;1.40;;
4786;SDS011;62338;48.832;9.422;2023-04-24T08:37:43;2.77;;;1.23;;
4786;SDS011;62338;48.832;9.422;2023-04-24T08:39:45;3.60;;;1.30;;
4786;SDS011;62338;48.832;9.422;2023-04-24T08:41:47;4.70;;;1.40;;
4786;SDS011;62338;48.832;9.422;2023-04-24T08:43:50;3.43;;;1.20;;
4786;SDS011;62338;48.832;9.422;2023-04-24T08:45:54;3.33;;;1.60;;
4786;SDS011;62338;48.832;9.422;2023-04-24T08:47:57;3.90;;;1.60;;
4786;SDS011;62338;48.832;9.422;2023-04-24T08:50:02;4.60;;;1.60;;
4786;SDS011;62338;48.832;9.422;2023-04-24T08:52:06;4.07;;;1.50;;
4786;SDS011;62338;48.832;9.422;2023-04-24T08:54:08;2.93;;;1.27;;
4786;SDS011;62338;48.832;9.422;2023-04-24T08:56:11;4.23;;;1.60;;
4786;SDS011;62338;48.832;9.422;2023-04-24T08:58:13;3.73;;;1.40;;
4786;SDS011;62338;48.832;9.422;2023-04-24T09:00:17;4.30;;;1.80;;
4786;SDS011;62338;48.832;9.422;2023-04-24T09:02:21;6.20;;;1.40;;
4786;SDS011;62338;48.832;9.422;2023-04-24T09:04:24;3.03;;;1.43;;
4786;SDS011;62338;48.832;9.422;2023-04-24T09:06:27;2.73;;;1.30;;
4786;SDS011;62338;48.832;9.422;2023-04-24T09:08:31;3.50;;;1.53;;
4786;SDS011;62338;48.832;9.422;2023-04-24T09:10:34;7.70;;;1.80;;
4786;SDS011;62338;48.832;9.422;2023-04-24T09:12:36;2.70;;;1.43;;
4786;SDS011;62338;48.832;9.422;2023-04-24T09:14:38;3.03;;;1.20;;
4786;SDS011;62338;48.832;9.422;2023-04-24T09:16:43;5.10;;;1.70;;
4786;SDS011;62338;48.832;9.422;2023-04-24T09:18:45;3.43;;;1.60;;
4786;SDS011;62338;48.832;9.422;2023-04-24T09:20:59;6.37;;;1.60;;
4786;SDS011;62338;48.832;9.422;2023-04-24T09:23:03;3.27;;;1.30;;
4786;SDS011;62338;48.832;9.422;2023-04-24T09:25:06;5.90;;;1.60;;
4786;SDS011;62338;48.832;9.422;2023-04-24T09:27:10;3.07;;;1.40;;
4786;SDS011;62338;48.832;9.422;2023-04-24T09:29:16;3.70;;;1.30;;
4786;SDS011;62338;48.832;9.422;2023-04-24T09:31:19;2.57;;;1.33;;
4786;SDS011;62338;48.832;9.422;2023-04-24T09:33:23;3.30;;;1.57;;
4786;SDS011;62338;48.832;9.422;2023-04-24T09:35:24;3.90;;;1.50;;
4786;SDS011;62338;48.832;9.422;2023-04-24T09:37:27;5.17;;;1.60;;
4786;SDS011;62338;48.832;9.422;2023-04-24T09:39:30;2.70;;;1.30;;
4786;SDS011;62338;48.832;9.422;2023-04-24T09:41:32;5.17;;;1.63;;
4786;SDS011;62338;48.832;9.422;2023-04-24T09:43:34;2.50;;;1.23;;
4786;SDS011;62338;48.832;9.422;2023-04-24T09:45:37;2.93;;;0.90;;
4786;SDS011;62338;48.832;9.422;2023-04-24T09:47:40;7.53;;;1.70;;
4786;SDS011;62338;48.832;9.422;2023-04-24T09:49:42;2.87;;;1.30;;
4786;SDS011;62338;48.832;9.422;2023-04-24T09:51:45;2.57;;;1.40;;
4786;SDS011;62338;48.832;9.422;2023-04-24T09:53:47;2.60;;;1.30;;
4786;SDS011;62338;48.832;9.422;2023-04-24T09:55:49;2.40;;;1.30;;
4786;SDS011;62338;48.832;9.422;2023-04-24T09:57:53;2.63;;;1.30;;
4786;SDS011;62338;48.832;9.422;2023-04-24T09:59:58;3.03;;;1.60;;
4786;SDS011;62338;48.832;9.422;2023-04-24T10:02:00;2.63;;;1.17;;
4786;SDS011;62338;48.832;9.422;2023-04-24T10:04:02;2.47;;;1.43;;
4786;SDS011;62338;48.832;9.422;2023-04-24T10:06:03;3.43;;;1.53;;
4786;SDS011;62338;48.832;9.422;2023-04-24T10:08:11;4.60;;;1.93;;
4786;SDS011;62338;48.832;9.422;2023-04-24T10:10:14;4.87;;;1.50;;
4786;SDS011;62338;48.832;9.422;2023-04-24T10:12:16;4.00;;;1.70;;
4786;SDS011;62338;48.832;9.422;2023-04-24T10:14:19;3.10;;;1.50;;
4786;SDS011;62338;48.832;9.422;2023-04-24T10:16:25;3.77;;;1.53;;
4786;SDS011;62338;48.832;9.422;2023-04-24T10:18:28;2.70;;;1.40;;
4786;SDS011;62338;48.832;9.422;2023-04-24T10:20:32;2.60;;;1.33;;
4786;SDS011;62338;48.832;9.422;2023-04-24T10:22:34;3.97;;;1.80;;
4786;SDS011;62338;48.832;9.422;2023-04-24T10:24:37;5.00;;;1.67;;
4786;SDS011;62338;48.832;9.422;2023-04-24T10:26:40;2.70;;;1.30;;
4786;SDS011;62338;48.832;9.422;2023-04-24T10:28:44;3.13;;;1.60;;
4786;SDS011;62338;48.832;9.422;2023-04-24T10:30:46;3.10;;;1.20;;
4786;SDS011;62338;48.832;9.422;2023-04-24T10:32:49;3.83;;;1.30;;
4786;SDS011;62338;48.832;9.422;2023-04-24T10:34:51;7.03;;;1.50;;
4786;SDS011;62338;48.832;9.422;2023-04-24T10:36:53;2.90;;;1.27;;
4786;SDS011;62338;48.832;9.422;2023-04-24T10:38:59;2.87;;;1.33;;
4786;SDS011;62338;48.832;9.422;2023-04-24T10:41:09;4.23;;;1.30;;
4786;SDS011;62338;48.832;9.422;2023-04-24T10:43:17;3.20;;;1.20;;
4786;SDS011;62338;48.832;9.422;2023-04-24T10:45:20;3.23;;;1.23;;
4786;SDS011;62338;48.832;9.422;2023-04-24T10:47:23;3.13;;;1.30;;
4786;SDS011;62338;48.832;9.422;2023-04-24T10:49:29;3.17;;;1.40;;
4786;SDS011;62338;48.832;9.422;2023-04-24T10:51:45;2.70;;;1.30;;
4786;SDS011;62338;48.832;9.422;2023-04-24T10:53:55;2.97;;;1.20;;
4786;SDS011;62338;48.832;9.422;2023-04-24T10:58:05;3.07;;;1.30;;
4786;SDS011;62338;48.832;9.422;2023-04-24T11:00:18;3.27;;;1.50;;
4786;SDS011;62338;48.832;9.422;2023-04-24T11:02:35;2.83;;;1.43;;
4786;SDS011;62338;48.832;9.422;2023-04-24T11:04:38;3.97;;;1.63;;
4786;SDS011;62338;48.832;9.422;2023-04-24T11:06:40;2.80;;;1.37;;
4786;SDS011;62338;48.832;9.422;2023-04-24T11:08:44;4.17;;;1.53;;
4786;SDS011;62338;48.832;9.422;2023-04-24T11:10:54;2.70;;;1.50;;
4786;SDS011;62338;48.832;9.422;2023-04-24T11:12:57;5.23;;;1.60;;
4786;SDS011;62338;48.832;9.422;2023-04-24T11:15:02;4.00;;;1.40;;
4786;SDS011;62338;48.832;9.422;2023-04-24T11:17:04;2.80;;;1.40;;
4786;SDS011;62338;48.832;9.422;2023-04-24T11:19:07;7.07;;;1.80;;
4786;SDS011;62338;48.832;9.422;2023-04-24T11:21:12;2.80;;;1.30;;
4786;SDS011;62338;48.832;9.422;2023-04-24T11:23:14;2.33;;;1.20;;
4786;SDS011;62338;48.832;9.422;2023-04-24T11:25:16;2.80;;;1.37;;
4786;SDS011;62338;48.832;9.422;2023-04-24T11:27:18;2.80;;;1.27;;
4786;SDS011;62338;48.832;9.422;2023-04-24T11:29:21;4.03;;;1.57;;
4786;SDS011;62338;48.832;9.422;2023-04-24T11:31:38;2.50;;;1.37;;
4786;SDS011;62338;48.832;9.422;2023-04-24T11:33:41;3.13;;;1.50;;
4786;SDS011;62338;48.832;9.422;2023-04-24T11:35:43;3.13;;;1.30;;
4786;SDS011;62338;48.832;9.422;2023-04-24T11:37:46;2.70;;;1.30;;
4786;SDS011;62338;48.832;9.422;2023-04-24T11:39:55;3.33;;;1.40;;
4786;SDS011;62338;48.832;9.422;2023-04-24T11:42:04;2.47;;;1.13;;
4786;SDS011;62338;48.832;9.422;2023-04-24T11:44:08;2.70;;;1.33;;
4786;SDS011;62338;48.832;9.422;2023-04-24T11:46:11;4.57;;;1.47;;
4786;SDS011;62338;48.832;9.422;2023-04-24T11:48:12;3.33;;;1.20;;
4786;SDS011;62338;48.832;9.422;2023-04-24T11:50:24;3.17;;;1.50;;
4786;SDS011;62338;48.832;9.422;2023-04-24T11:52:29;3.90;;;1.47;;
4786;SDS011;62338;48.832;9.422;2023-04-24T11:54:31;6.13;;;1.80;;
4786;SDS011;62338;48.832;9.422;2023-04-24T11:56:33;2.60;;;1.30;;
4786;SDS011;62338;48.832;9.422;2023-04-24T11:58:35;5.53;;;1.80;;
4786;SDS011;62338;48.832;9.422;2023-04-24T12:00:39;3.63;;;1.37;;
4786;SDS011;62338;48.832;9.422;2023-04-24T12:02:41;3.60;;;1.40;;
4786;SDS011;62338;48.832;9.422;2023-04-24T12:04:43;2.20;;;1.00;;
4786;SDS011;62338;48.832;9.422;2023-04-24T12:07:04;2.70;;;1.40;;
4786;SDS011;62338;48.832;9.422;2023-04-24T12:09:06;3.20;;;1.40;;
4786;SDS011;62338;48.832;9.422;2023-04-24T12:11:18;2.63;;;1.30;;
4786;SDS011;62338;48.832;9.422;2023-04-24T12:13:20;3.07;;;1.60;;
4786;SDS011;62338;48.832;9.422;2023-04-24T12:15:22;3.40;;;1.50;;
4786;SDS011;62338;48.832;9.422;2023-04-24T12:17:26;3.23;;;1.60;;
4786;SDS011;62338;48.832;9.422;2023-04-24T12:19:30;4.67;;;1.60;;
4786;SDS011;62338;48.832;9.422;2023-04-24T12:21:31;7.23;;;1.70;;
4786;SDS011;62338;48.832;9.422;2023-04-24T12:23:34;2.60;;;1.70;;
4786;SDS011;62338;48.832;9.422;2023-04-24T12:25:38;3.63;;;1.30;;
4786;SDS011;62338;48.832;9.422;2023-04-24T12:27:40;2.70;;;1.43;;
4786;SDS011;62338;48.832;9.422;2023-04-24T12:30:01;2.83;;;1.50;;
4786;SDS011;62338;48.832;9.422;2023-04-24T12:32:04;4.27;;;1.90;;